Terminal Aerodrome Forecast
Issued by NWS Charleston, WV

Current Version | Previous Version | Text Only | Print | Product List | Glossary Off
Versions: 1 2 3 4 5 6 7 8 9 10 11 12 13 14 15 16 17 18 19 20 21 22 23 24 25 26 27 28

622
FTUS41 KRLX 231215 AAA
TAFEKN
TAF AMD
KEKN 231215Z 2312/2412 00000KT P6SM BKN005 BKN020
     FM231300 00000KT P6SM SCT008 SCT016
     FM231500 VRB03KT P6SM SCT025
     FM231700 34005KT P6SM VCSH BKN045
     FM231900 34006KT 3SM -SHRA VCTS BKN040CB
     FM232200 33005KT P6SM VCTS BKN040CB
     FM232300 32004KT P6SM BKN080
     FM240500 00000KT 4SM BR SCT070
     FM240600 00000KT 1/2SM FG VV001=

USA.gov is the U.S. government's official web portal to all federal, state and local government web resources and services.